sensor_id;sensor_type;location;lat;lon;timestamp;temperature;humidity
5556;DHT22;2801;50.972;7.856;2023-01-01T00:00:42;12.40;99.90
5556;DHT22;2801;50.972;7.856;2023-01-01T00:03:09;12.50;99.90
5556;DHT22;2801;50.972;7.856;2023-01-01T00:05:39;12.40;99.90
5556;DHT22;2801;50.972;7.856;2023-01-01T00:08:06;12.30;99.90
5556;DHT22;2801;50.972;7.856;2023-01-01T00:10:33;12.20;99.90
5556;DHT22;2801;50.972;7.856;2023-01-01T00:13:00;12.20;99.90
5556;DHT22;2801;50.972;7.856;2023-01-01T00:15:27;12.10;99.90
5556;DHT22;2801;50.972;7.856;2023-01-01T00:17:54;12.00;99.90
5556;DHT22;2801;50.972;7.856;2023-01-01T00:20:22;11.90;99.90
5556;DHT22;2801;50.972;7.856;2023-01-01T00:22:49;11.90;99.90
5556;DHT22;2801;50.972;7.856;2023-01-01T00:25:21;11.90;99.90
5556;DHT22;2801;50.972;7.856;2023-01-01T00:27:48;11.80;99.90
5556;DHT22;2801;50.972;7.856;2023-01-01T00:30:16;11.80;99.90
5556;DHT22;2801;50.972;7.856;2023-01-01T00:32:43;11.90;99.90
5556;DHT22;2801;50.972;7.856;2023-01-01T00:35:21;12.00;99.90
5556;DHT22;2801;50.972;7.856;2023-01-01T00:37:49;12.00;99.90
5556;DHT22;2801;50.972;7.856;2023-01-01T00:40:16;12.00;99.90
5556;DHT22;2801;50.972;7.856;2023-01-01T00:42:44;12.00;99.90
5556;DHT22;2801;50.972;7.856;2023-01-01T00:45:11;12.00;99.90
5556;DHT22;2801;50.972;7.856;2023-01-01T00:47:46;11.90;99.90
5556;DHT22;2801;50.972;7.856;2023-01-01T00:50:14;12.00;99.90
5556;DHT22;2801;50.972;7.856;2023-01-01T00:52:41;11.90;99.90
5556;DHT22;2801;50.972;7.856;2023-01-01T00:55:08;12.00;99.90
5556;DHT22;2801;50.972;7.856;2023-01-01T00:57:35;11.90;99.90
5556;DHT22;2801;50.972;7.856;2023-01-01T01:00:03;11.90;99.90
5556;DHT22;2801;50.972;7.856;2023-01-01T01:02:31;11.80;99.90
5556;DHT22;2801;50.972;7.856;2023-01-01T01:04:58;11.80;99.90
5556;DHT22;2801;50.972;7.856;2023-01-01T01:07:26;11.80;99.90
5556;DHT22;2801;50.972;7.856;2023-01-01T01:09:53;11.70;99.90
5556;DHT22;2801;50.972;7.856;2023-01-01T01:12:20;11.70;99.90
5556;DHT22;2801;50.972;7.856;2023-01-01T01:14:47;11.70;99.90
5556;DHT22;2801;50.972;7.856;2023-01-01T01:17:14;11.70;99.90
5556;DHT22;2801;50.972;7.856;2023-01-01T01:19:41;11.70;99.90
5556;DHT22;2801;50.972;7.856;2023-01-01T01:22:07;11.90;99.90
5556;DHT22;2801;50.972;7.856;2023-01-01T01:24:34;11.80;99.90
5556;DHT22;2801;50.972;7.856;2023-01-01T01:27:01;11.90;99.90
5556;DHT22;2801;50.972;7.856;2023-01-01T01:29:28;11.90;99.90
5556;DHT22;2801;50.972;7.856;2023-01-01T01:31:55;12.10;99.90
5556;DHT22;2801;50.972;7.856;2023-01-01T01:34:21;11.90;99.90
5556;DHT22;2801;50.972;7.856;2023-01-01T01:36:54;11.80;99.90
5556;DHT22;2801;50.972;7.856;2023-01-01T01:39:21;11.80;99.90
5556;DHT22;2801;50.972;7.856;2023-01-01T01:41:48;11.70;99.90
5556;DHT22;2801;50.972;7.856;2023-01-01T01:44:53;11.70;99.90
5556;DHT22;2801;50.972;7.856;2023-01-01T01:53:15;12.00;99.90
5556;DHT22;2801;50.972;7.856;2023-01-01T01:55:51;11.90;99.90
5556;DHT22;2801;50.972;7.856;2023-01-01T01:58:21;12.00;99.90
5556;DHT22;2801;50.972;7.856;2023-01-01T02:00:50;12.00;99.90
5556;DHT22;2801;50.972;7.856;2023-01-01T02:03:41;12.00;99.90
5556;DHT22;2801;50.972;7.856;2023-01-01T02:06:21;12.10;99.90
5556;DHT22;2801;50.972;7.856;2023-01-01T02:08:49;12.10;99.90
5556;DHT22;2801;50.972;7.856;2023-01-01T02:11:17;12.10;99.90
5556;DHT22;2801;50.972;7.856;2023-01-01T02:13:48;12.10;99.90
5556;DHT22;2801;50.972;7.856;2023-01-01T02:16:25;12.10;99.90
5556;DHT22;2801;50.972;7.856;2023-01-01T02:19:11;12.10;99.90
5556;DHT22;2801;50.972;7.856;2023-01-01T02:22:15;12.20;99.90
5556;DHT22;2801;50.972;7.856;2023-01-01T02:30:24;12.10;99.90
5556;DHT22;2801;50.972;7.856;2023-01-01T02:35:42;12.10;99.90
5556;DHT22;2801;50.972;7.856;2023-01-01T02:38:16;12.00;99.90
5556;DHT22;2801;50.972;7.856;2023-01-01T02:41:01;12.00;99.90
5556;DHT22;2801;50.972;7.856;2023-01-01T02:43:32;11.90;99.90
5556;DHT22;2801;50.972;7.856;2023-01-01T02:46:05;11.80;99.90
5556;DHT22;2801;50.972;7.856;2023-01-01T02:54:24;11.70;99.90
5556;DHT22;2801;50.972;7.856;2023-01-01T02:57:25;11.70;99.90
5556;DHT22;2801;50.972;7.856;2023-01-01T03:00:10;11.80;99.90
5556;DHT22;2801;50.972;7.856;2023-01-01T03:03:07;11.70;99.90
5556;DHT22;2801;50.972;7.856;2023-01-01T03:09:22;11.70;99.90
5556;DHT22;2801;50.972;7.856;2023-01-01T03:15:43;11.80;99.90
5556;DHT22;2801;50.972;7.856;2023-01-01T03:18:38;11.70;99.90
5556;DHT22;2801;50.972;7.856;2023-01-01T03:21:15;11.70;99.90
5556;DHT22;2801;50.972;7.856;2023-01-01T03:23:47;11.70;99.90
5556;DHT22;2801;50.972;7.856;2023-01-01T03:26:20;11.70;99.90
5556;DHT22;2801;50.972;7.856;2023-01-01T03:28:56;11.70;99.90
5556;DHT22;2801;50.972;7.856;2023-01-01T03:31:25;11.70;99.90
5556;DHT22;2801;50.972;7.856;2023-01-01T03:34:16;11.80;99.90
5556;DHT22;2801;50.972;7.856;2023-01-01T03:36:50;11.80;99.90
5556;DHT22;2801;50.972;7.856;2023-01-01T03:39:28;11.80;99.90
5556;DHT22;2801;50.972;7.856;2023-01-01T03:44:49;11.70;99.90
5556;DHT22;2801;50.972;7.856;2023-01-01T03:47:22;11.60;99.90
5556;DHT22;2801;50.972;7.856;2023-01-01T03:49:49;11.50;99.90
5556;DHT22;2801;50.972;7.856;2023-01-01T03:52:30;11.60;99.90
5556;DHT22;2801;50.972;7.856;2023-01-01T03:55:31;11.60;99.90
5556;DHT22;2801;50.972;7.856;2023-01-01T03:58:23;11.60;99.90
5556;DHT22;2801;50.972;7.856;2023-01-01T04:01:24;11.60;99.90
5556;DHT22;2801;50.972;7.856;2023-01-01T04:03:56;11.70;99.90
5556;DHT22;2801;50.972;7.856;2023-01-01T04:06:25;11.70;99.90
5556;DHT22;2801;50.972;7.856;2023-01-01T04:08:56;11.70;99.90
5556;DHT22;2801;50.972;7.856;2023-01-01T04:11:27;11.70;99.90
5556;DHT22;2801;50.972;7.856;2023-01-01T04:14:32;11.70;99.90
5556;DHT22;2801;50.972;7.856;2023-01-01T04:17:02;11.70;99.90
5556;DHT22;2801;50.972;7.856;2023-01-01T04:19:31;11.70;99.90
5556;DHT22;2801;50.972;7.856;2023-01-01T04:21:58;11.60;99.90
5556;DHT22;2801;50.972;7.856;2023-01-01T04:24:25;11.60;99.90
5556;DHT22;2801;50.972;7.856;2023-01-01T04:26:53;11.60;99.90
5556;DHT22;2801;50.972;7.856;2023-01-01T04:29:20;11.60;99.90
5556;DHT22;2801;50.972;7.856;2023-01-01T04:31:48;11.60;99.90
5556;DHT22;2801;50.972;7.856;2023-01-01T04:34:16;11.60;99.90
5556;DHT22;2801;50.972;7.856;2023-01-01T04:36:42;11.70;99.90
5556;DHT22;2801;50.972;7.856;2023-01-01T04:39:09;11.70;99.90
5556;DHT22;2801;50.972;7.856;2023-01-01T04:41:36;11.70;99.90
5556;DHT22;2801;50.972;7.856;2023-01-01T04:44:03;11.70;99.90
5556;DHT22;2801;50.972;7.856;2023-01-01T04:46:30;11.70;99.90
5556;DHT22;2801;50.972;7.856;2023-01-01T04:48:57;11.90;99.90
5556;DHT22;2801;50.972;7.856;2023-01-01T04:51:24;11.70;99.90
5556;DHT22;2801;50.972;7.856;2023-01-01T04:53:51;11.80;99.90
5556;DHT22;2801;50.972;7.856;2023-01-01T04:56:20;11.70;99.90
5556;DHT22;2801;50.972;7.856;2023-01-01T04:58:48;11.70;99.90
5556;DHT22;2801;50.972;7.856;2023-01-01T05:01:21;11.70;99.90
5556;DHT22;2801;50.972;7.856;2023-01-01T05:03:51;11.70;99.90
5556;DHT22;2801;50.972;7.856;2023-01-01T05:06:18;11.70;99.90
5556;DHT22;2801;50.972;7.856;2023-01-01T05:08:48;11.60;99.90
5556;DHT22;2801;50.972;7.856;2023-01-01T05:11:17;11.70;99.90
5556;DHT22;2801;50.972;7.856;2023-01-01T05:13:48;11.70;99.90
5556;DHT22;2801;50.972;7.856;2023-01-01T05:16:19;11.80;99.90
5556;DHT22;2801;50.972;7.856;2023-01-01T05:18:48;11.60;99.90
5556;DHT22;2801;50.972;7.856;2023-01-01T05:21:18;11.60;99.90
5556;DHT22;2801;50.972;7.856;2023-01-01T05:23:47;11.60;99.90
5556;DHT22;2801;50.972;7.856;2023-01-01T05:26:19;11.60;99.90
5556;DHT22;2801;50.972;7.856;2023-01-01T05:28:50;11.60;99.90
5556;DHT22;2801;50.972;7.856;2023-01-01T05:31:20;11.60;99.90
5556;DHT22;2801;50.972;7.856;2023-01-01T05:33:49;11.60;99.90
5556;DHT22;2801;50.972;7.856;2023-01-01T05:36:23;11.60;99.90
5556;DHT22;2801;50.972;7.856;2023-01-01T05:38:52;11.60;99.90
5556;DHT22;2801;50.972;7.856;2023-01-01T05:41:21;11.60;99.90
5556;DHT22;2801;50.972;7.856;2023-01-01T05:43:49;11.70;99.90
5556;DHT22;2801;50.972;7.856;2023-01-01T05:46:22;11.70;99.90
5556;DHT22;2801;50.972;7.856;2023-01-01T05:48:52;11.70;99.90
5556;DHT22;2801;50.972;7.856;2023-01-01T05:51:24;11.70;99.90
5556;DHT22;2801;50.972;7.856;2023-01-01T05:53:53;11.70;99.90
5556;DHT22;2801;50.972;7.856;2023-01-01T05:56:20;11.70;99.90
5556;DHT22;2801;50.972;7.856;2023-01-01T05:58:47;11.70;99.90
5556;DHT22;2801;50.972;7.856;2023-01-01T06:01:22;11.70;99.90
5556;DHT22;2801;50.972;7.856;2023-01-01T06:03:52;11.70;99.90
5556;DHT22;2801;50.972;7.856;2023-01-01T06:06:23;11.70;99.90
5556;DHT22;2801;50.972;7.856;2023-01-01T06:08:56;11.70;99.90
5556;DHT22;2801;50.972;7.856;2023-01-01T06:11:25;11.70;99.90
5556;DHT22;2801;50.972;7.856;2023-01-01T06:13:54;11.70;99.90
5556;DHT22;2801;50.972;7.856;2023-01-01T06:16:23;11.60;99.90
5556;DHT22;2801;50.972;7.856;2023-01-01T06:18:52;11.60;99.90
5556;DHT22;2801;50.972;7.856;2023-01-01T06:21:21;11.70;99.90
5556;DHT22;2801;50.972;7.856;2023-01-01T06:23:49;11.70;99.90
5556;DHT22;2801;50.972;7.856;2023-01-01T06:26:19;11.70;99.90
5556;DHT22;2801;50.972;7.856;2023-01-01T06:28:48;11.70;99.90
5556;DHT22;2801;50.972;7.856;2023-01-01T06:31:18;11.70;99.90
5556;DHT22;2801;50.972;7.856;2023-01-01T06:33:47;11.70;99.90
5556;DHT22;2801;50.972;7.856;2023-01-01T06:36:17;11.70;99.90
5556;DHT22;2801;50.972;7.856;2023-01-01T06:38:48;11.70;99.90
5556;DHT22;2801;50.972;7.856;2023-01-01T06:41:19;11.70;99.90
5556;DHT22;2801;50.972;7.856;2023-01-01T06:43:48;11.80;99.90
5556;DHT22;2801;50.972;7.856;2023-01-01T06:46:25;11.70;99.90
5556;DHT22;2801;50.972;7.856;2023-01-01T06:49:09;11.70;99.90
5556;DHT22;2801;50.972;7.856;2023-01-01T06:51:41;11.70;99.90
5556;DHT22;2801;50.972;7.856;2023-01-01T06:54:10;11.80;99.90
5556;DHT22;2801;50.972;7.856;2023-01-01T06:56:37;11.80;99.90
5556;DHT22;2801;50.972;7.856;2023-01-01T06:59:04;11.80;99.90
5556;DHT22;2801;50.972;7.856;2023-01-01T07:01:33;11.80;99.90
5556;DHT22;2801;50.972;7.856;2023-01-01T07:04:04;11.80;99.90
5556;DHT22;2801;50.972;7.856;2023-01-01T07:06:34;11.70;99.90
5556;DHT22;2801;50.972;7.856;2023-01-01T07:09:02;11.70;99.90
5556;DHT22;2801;50.972;7.856;2023-01-01T07:11:30;11.70;99.90
5556;DHT22;2801;50.972;7.856;2023-01-01T07:13:57;11.70;99.90
5556;DHT22;2801;50.972;7.856;2023-01-01T07:16:23;11.70;99.90
5556;DHT22;2801;50.972;7.856;2023-01-01T07:18:51;11.60;99.90
5556;DHT22;2801;50.972;7.856;2023-01-01T07:21:27;11.60;99.90
5556;DHT22;2801;50.972;7.856;2023-01-01T07:24:00;11.50;99.90
5556;DHT22;2801;50.972;7.856;2023-01-01T07:26:29;11.50;99.90
5556;DHT22;2801;50.972;7.856;2023-01-01T07:28:58;11.50;99.90
5556;DHT22;2801;50.972;7.856;2023-01-01T07:31:38;11.60;99.90
5556;DHT22;2801;50.972;7.856;2023-01-01T07:34:11;11.60;99.90
5556;DHT22;2801;50.972;7.856;2023-01-01T07:36:40;11.60;99.90
5556;DHT22;2801;50.972;7.856;2023-01-01T07:39:07;11.60;99.90
5556;DHT22;2801;50.972;7.856;2023-01-01T07:41:35;11.80;99.90
5556;DHT22;2801;50.972;7.856;2023-01-01T07:44:02;11.70;99.90
5556;DHT22;2801;50.972;7.856;2023-01-01T07:46:29;11.70;99.90
5556;DHT22;2801;50.972;7.856;2023-01-01T07:48:56;11.60;99.90
5556;DHT22;2801;50.972;7.856;2023-01-01T07:51:23;11.70;99.90
5556;DHT22;2801;50.972;7.856;2023-01-01T07:53:50;11.70;99.90
5556;DHT22;2801;50.972;7.856;2023-01-01T07:56:17;11.70;99.90
5556;DHT22;2801;50.972;7.856;2023-01-01T07:58:44;11.70;99.90
5556;DHT22;2801;50.972;7.856;2023-01-01T08:01:12;11.70;99.90
5556;DHT22;2801;50.972;7.856;2023-01-01T08:03:40;11.70;99.90
5556;DHT22;2801;50.972;7.856;2023-01-01T08:06:09;12.00;99.90
5556;DHT22;2801;50.972;7.856;2023-01-01T08:08:38;11.80;99.90
5556;DHT22;2801;50.972;7.856;2023-01-01T08:11:06;11.80;99.90
5556;DHT22;2801;50.972;7.856;2023-01-01T08:13:33;11.80;99.90
5556;DHT22;2801;50.972;7.856;2023-01-01T08:16:00;11.80;99.90
5556;DHT22;2801;50.972;7.856;2023-01-01T08:18:27;11.80;99.90
5556;DHT22;2801;50.972;7.856;2023-01-01T08:20:54;11.70;99.90
5556;DHT22;2801;50.972;7.856;2023-01-01T08:23:22;11.60;99.90
5556;DHT22;2801;50.972;7.856;2023-01-01T08:25:49;11.50;99.90
5556;DHT22;2801;50.972;7.856;2023-01-01T08:28:16;11.40;99.90
5556;DHT22;2801;50.972;7.856;2023-01-01T08:30:43;11.30;99.90
5556;DHT22;2801;50.972;7.856;2023-01-01T08:33:10;11.40;99.90
5556;DHT22;2801;50.972;7.856;2023-01-01T08:35:39;11.20;99.90
5556;DHT22;2801;50.972;7.856;2023-01-01T08:38:11;11.20;99.90
5556;DHT22;2801;50.972;7.856;2023-01-01T08:40:38;11.20;99.90
5556;DHT22;2801;50.972;7.856;2023-01-01T08:43:05;11.20;99.90
5556;DHT22;2801;50.972;7.856;2023-01-01T08:45:32;11.20;99.90
5556;DHT22;2801;50.972;7.856;2023-01-01T08:48:00;11.20;99.90
5556;DHT22;2801;50.972;7.856;2023-01-01T08:50:26;11.30;99.90
5556;DHT22;2801;50.972;7.856;2023-01-01T08:52:53;11.30;99.90
5556;DHT22;2801;50.972;7.856;2023-01-01T08:55:20;11.30;99.90
5556;DHT22;2801;50.972;7.856;2023-01-01T08:57:47;11.40;99.90
5556;DHT22;2801;50.972;7.856;2023-01-01T09:00:14;11.50;99.90
5556;DHT22;2801;50.972;7.856;2023-01-01T09:02:42;11.50;99.90
5556;DHT22;2801;50.972;7.856;2023-01-01T09:05:09;11.50;99.90
5556;DHT22;2801;50.972;7.856;2023-01-01T09:07:36;11.60;99.90
5556;DHT22;2801;50.972;7.856;2023-01-01T09:10:04;11.70;99.90
5556;DHT22;2801;50.972;7.856;2023-01-01T09:12:31;11.70;99.90
5556;DHT22;2801;50.972;7.856;2023-01-01T09:14:58;11.80;99.90
5556;DHT22;2801;50.972;7.856;2023-01-01T09:17:24;11.80;99.90
5556;DHT22;2801;50.972;7.856;2023-01-01T09:19:51;11.80;99.90
5556;DHT22;2801;50.972;7.856;2023-01-01T09:22:18;11.80;99.90
5556;DHT22;2801;50.972;7.856;2023-01-01T09:24:45;11.90;99.90
5556;DHT22;2801;50.972;7.856;2023-01-01T09:27:12;11.90;99.90
5556;DHT22;2801;50.972;7.856;2023-01-01T09:29:38;11.90;99.90
5556;DHT22;2801;50.972;7.856;2023-01-01T09:32:05;12.00;99.90
5556;DHT22;2801;50.972;7.856;2023-01-01T09:34:32;12.00;99.90
5556;DHT22;2801;50.972;7.856;2023-01-01T09:36:59;12.00;99.90
5556;DHT22;2801;50.972;7.856;2023-01-01T09:39:26;12.00;99.90
5556;DHT22;2801;50.972;7.856;2023-01-01T09:42:09;12.00;99.90
5556;DHT22;2801;50.972;7.856;2023-01-01T09:47:54;12.10;99.90
5556;DHT22;2801;50.972;7.856;2023-01-01T09:50:30;12.00;99.90
5556;DHT22;2801;50.972;7.856;2023-01-01T09:53:14;12.10;99.90
5556;DHT22;2801;50.972;7.856;2023-01-01T09:55:57;12.00;99.90
5556;DHT22;2801;50.972;7.856;2023-01-01T09:58:28;12.10;99.90
5556;DHT22;2801;50.972;7.856;2023-01-01T10:01:29;12.10;99.90
5556;DHT22;2801;50.972;7.856;2023-01-01T10:10:43;12.10;99.90
5556;DHT22;2801;50.972;7.856;2023-01-01T10:13:36;12.10;99.90
5556;DHT22;2801;50.972;7.856;2023-01-01T10:16:32;12.10;99.90
5556;DHT22;2801;50.972;7.856;2023-01-01T10:25:03;12.30;99.90
5556;DHT22;2801;50.972;7.856;2023-01-01T10:27:47;12.50;99.90
5556;DHT22;2801;50.972;7.856;2023-01-01T10:30:27;12.60;99.90
5556;DHT22;2801;50.972;7.856;2023-01-01T10:32:55;12.70;99.90
5556;DHT22;2801;50.972;7.856;2023-01-01T10:35:38;12.80;99.90
5556;DHT22;2801;50.972;7.856;2023-01-01T10:38:21;12.80;99.90
5556;DHT22;2801;50.972;7.856;2023-01-01T10:40:51;12.90;99.90
5556;DHT22;2801;50.972;7.856;2023-01-01T10:43:22;13.10;99.90
5556;DHT22;2801;50.972;7.856;2023-01-01T10:45:53;13.00;99.90
5556;DHT22;2801;50.972;7.856;2023-01-01T10:48:23;13.00;99.90
5556;DHT22;2801;50.972;7.856;2023-01-01T10:50:57;13.00;99.90
5556;DHT22;2801;50.972;7.856;2023-01-01T10:58:36;13.10;99.90
5556;DHT22;2801;50.972;7.856;2023-01-01T11:01:09;13.10;99.90
5556;DHT22;2801;50.972;7.856;2023-01-01T11:03:56;13.20;99.90
5556;DHT22;2801;50.972;7.856;2023-01-01T11:06:42;13.20;99.90
5556;DHT22;2801;50.972;7.856;2023-01-01T11:09:24;13.20;99.90
5556;DHT22;2801;50.972;7.856;2023-01-01T11:11:56;13.30;99.90
5556;DHT22;2801;50.972;7.856;2023-01-01T11:14:48;13.30;99.90
5556;DHT22;2801;50.972;7.856;2023-01-01T11:17:30;13.30;99.90
5556;DHT22;2801;50.972;7.856;2023-01-01T11:20:00;13.20;99.90
5556;DHT22;2801;50.972;7.856;2023-01-01T11:22:44;13.20;99.90
5556;DHT22;2801;50.972;7.856;2023-01-01T11:25:38;13.20;99.90
5556;DHT22;2801;50.972;7.856;2023-01-01T11:28:21;13.10;99.90
5556;DHT22;2801;50.972;7.856;2023-01-01T11:36:28;13.10;99.90
5556;DHT22;2801;50.972;7.856;2023-01-01T11:39:24;13.10;99.90
5556;DHT22;2801;50.972;7.856;2023-01-01T11:41:54;13.00;99.90
5556;DHT22;2801;50.972;7.856;2023-01-01T11:44:39;13.00;99.90
5556;DHT22;2801;50.972;7.856;2023-01-01T11:52:48;12.70;99.90
5556;DHT22;2801;50.972;7.856;2023-01-01T12:00:58;12.60;99.90
5556;DHT22;2801;50.972;7.856;2023-01-01T12:03:44;12.50;99.90
5556;DHT22;2801;50.972;7.856;2023-01-01T12:06:28;12.50;99.90
5556;DHT22;2801;50.972;7.856;2023-01-01T12:12:15;12.40;99.90
5556;DHT22;2801;50.972;7.856;2023-01-01T12:18:23;12.40;99.90
5556;DHT22;2801;50.972;7.856;2023-01-01T12:21:04;12.40;99.90
5556;DHT22;2801;50.972;7.856;2023-01-01T12:23:50;12.40;99.90
5556;DHT22;2801;50.972;7.856;2023-01-01T12:40:38;12.50;99.90
5556;DHT22;2801;50.972;7.856;2023-01-01T12:43:34;12.70;99.90
5556;DHT22;2801;50.972;7.856;2023-01-01T12:51:49;12.60;99.90
5556;DHT22;2801;50.972;7.856;2023-01-01T12:57:35;12.70;99.90
5556;DHT22;2801;50.972;7.856;2023-01-01T13:00:16;12.70;99.90
5556;DHT22;2801;50.972;7.856;2023-01-01T13:05:50;12.70;99.90
5556;DHT22;2801;50.972;7.856;2023-01-01T13:08:21;12.70;99.90
5556;DHT22;2801;50.972;7.856;2023-01-01T13:10:51;12.70;99.90
5556;DHT22;2801;50.972;7.856;2023-01-01T13:13:20;12.80;99.90
5556;DHT22;2801;50.972;7.856;2023-01-01T13:15:53;12.70;99.90
5556;DHT22;2801;50.972;7.856;2023-01-01T13:18:28;12.80;99.90
5556;DHT22;2801;50.972;7.856;2023-01-01T13:20:59;12.80;99.90
5556;DHT22;2801;50.972;7.856;2023-01-01T13:26:30;12.90;99.90
5556;DHT22;2801;50.972;7.856;2023-01-01T13:34:42;13.00;99.90
5556;DHT22;2801;50.972;7.856;2023-01-01T13:37:39;13.10;99.90
5556;DHT22;2801;50.972;7.856;2023-01-01T13:43:04;13.00;99.90
5556;DHT22;2801;50.972;7.856;2023-01-01T13:45:43;13.00;99.90
5556;DHT22;2801;50.972;7.856;2023-01-01T13:48:51;13.00;99.90
5556;DHT22;2801;50.972;7.856;2023-01-01T14:03:44;12.90;99.90
5556;DHT22;2801;50.972;7.856;2023-01-01T14:06:25;12.80;99.90
5556;DHT22;2801;50.972;7.856;2023-01-01T14:11:34;12.70;99.90
5556;DHT22;2801;50.972;7.856;2023-01-01T14:14:01;12.60;99.90
5556;DHT22;2801;50.972;7.856;2023-01-01T14:16:28;12.60;99.90
5556;DHT22;2801;50.972;7.856;2023-01-01T14:18:58;12.50;99.90
5556;DHT22;2801;50.972;7.856;2023-01-01T14:21:30;12.50;99.90
5556;DHT22;2801;50.972;7.856;2023-01-01T14:24:01;12.50;99.90
5556;DHT22;2801;50.972;7.856;2023-01-01T14:26:32;12.50;99.90
5556;DHT22;2801;50.972;7.856;2023-01-01T14:29:08;12.40;99.90
5556;DHT22;2801;50.972;7.856;2023-01-01T14:31:41;12.40;99.90
5556;DHT22;2801;50.972;7.856;2023-01-01T14:34:30;12.30;99.90
5556;DHT22;2801;50.972;7.856;2023-01-01T14:37:00;12.20;99.90
5556;DHT22;2801;50.972;7.856;2023-01-01T14:39:32;12.20;99.90
5556;DHT22;2801;50.972;7.856;2023-01-01T14:42:06;12.10;99.90
5556;DHT22;2801;50.972;7.856;2023-01-01T14:44:39;12.10;99.90
5556;DHT22;2801;50.972;7.856;2023-01-01T14:49:59;11.90;99.90
5556;DHT22;2801;50.972;7.856;2023-01-01T14:52:30;11.90;99.90
5556;DHT22;2801;50.972;7.856;2023-01-01T14:55:02;11.80;99.90
5556;DHT22;2801;50.972;7.856;2023-01-01T14:57:32;11.70;99.90
5556;DHT22;2801;50.972;7.856;2023-01-01T15:00:15;11.70;99.90
5556;DHT22;2801;50.972;7.856;2023-01-01T15:02:47;11.60;99.90
5556;DHT22;2801;50.972;7.856;2023-01-01T15:05:29;11.60;99.90
5556;DHT22;2801;50.972;7.856;2023-01-01T15:08:04;11.50;99.90
5556;DHT22;2801;50.972;7.856;2023-01-01T15:10:34;11.40;99.90
5556;DHT22;2801;50.972;7.856;2023-01-01T15:13:05;11.40;99.90
5556;DHT22;2801;50.972;7.856;2023-01-01T15:18:39;11.20;99.90
5556;DHT22;2801;50.972;7.856;2023-01-01T15:24:10;11.10;99.90
5556;DHT22;2801;50.972;7.856;2023-01-01T15:26:52;11.00;99.90
5556;DHT22;2801;50.972;7.856;2023-01-01T15:29:28;11.10;99.90
5556;DHT22;2801;50.972;7.856;2023-01-01T15:32:10;10.90;99.90
5556;DHT22;2801;50.972;7.856;2023-01-01T15:34:55;10.70;99.90
5556;DHT22;2801;50.972;7.856;2023-01-01T15:37:34;10.60;99.90
5556;DHT22;2801;50.972;7.856;2023-01-01T15:47:54;10.40;99.90
5556;DHT22;2801;50.972;7.856;2023-01-01T15:50:25;10.30;99.90
5556;DHT22;2801;50.972;7.856;2023-01-01T15:53:01;10.20;99.90
5556;DHT22;2801;50.972;7.856;2023-01-01T15:55:35;10.10;99.90
5556;DHT22;2801;50.972;7.856;2023-01-01T15:58:17;10.00;99.90
5556;DHT22;2801;50.972;7.856;2023-01-01T16:01:12;10.00;99.90
5556;DHT22;2801;50.972;7.856;2023-01-01T16:03:41;9.90;99.90
5556;DHT22;2801;50.972;7.856;2023-01-01T16:06:15;9.90;99.90
5556;DHT22;2801;50.972;7.856;2023-01-01T16:08:43;9.90;99.90
5556;DHT22;2801;50.972;7.856;2023-01-01T16:11:12;9.90;99.90
5556;DHT22;2801;50.972;7.856;2023-01-01T16:13:39;9.80;99.90
5556;DHT22;2801;50.972;7.856;2023-01-01T16:16:26;9.80;99.90
5556;DHT22;2801;50.972;7.856;2023-01-01T16:18:56;9.80;99.90
5556;DHT22;2801;50.972;7.856;2023-01-01T16:21:28;9.70;99.90
5556;DHT22;2801;50.972;7.856;2023-01-01T16:23:58;9.80;99.90
5556;DHT22;2801;50.972;7.856;2023-01-01T16:26:25;9.70;99.90
5556;DHT22;2801;50.972;7.856;2023-01-01T16:28:52;9.70;99.90
5556;DHT22;2801;50.972;7.856;2023-01-01T16:31:22;9.70;99.90
5556;DHT22;2801;50.972;7.856;2023-01-01T16:33:53;9.70;99.90
5556;DHT22;2801;50.972;7.856;2023-01-01T16:36:22;9.70;99.90
5556;DHT22;2801;50.972;7.856;2023-01-01T16:38:49;9.70;99.90
5556;DHT22;2801;50.972;7.856;2023-01-01T16:41:17;9.70;99.90
5556;DHT22;2801;50.972;7.856;2023-01-01T16:43:45;9.70;99.90
5556;DHT22;2801;50.972;7.856;2023-01-01T16:46:13;9.70;99.90
5556;DHT22;2801;50.972;7.856;2023-01-01T16:48:40;9.70;99.90
5556;DHT22;2801;50.972;7.856;2023-01-01T16:51:19;9.70;99.90
5556;DHT22;2801;50.972;7.856;2023-01-01T16:53:48;9.80;99.90
5556;DHT22;2801;50.972;7.856;2023-01-01T16:56:15;9.70;99.90
5556;DHT22;2801;50.972;7.856;2023-01-01T16:58:42;9.70;99.90
5556;DHT22;2801;50.972;7.856;2023-01-01T17:01:23;9.80;99.90
5556;DHT22;2801;50.972;7.856;2023-01-01T17:03:51;9.60;99.90
5556;DHT22;2801;50.972;7.856;2023-01-01T17:06:18;9.60;99.90
5556;DHT22;2801;50.972;7.856;2023-01-01T17:08:45;9.60;99.90
5556;DHT22;2801;50.972;7.856;2023-01-01T17:11:14;9.60;99.90
5556;DHT22;2801;50.972;7.856;2023-01-01T17:13:44;9.60;99.90
5556;DHT22;2801;50.972;7.856;2023-01-01T17:16:12;9.60;99.90
5556;DHT22;2801;50.972;7.856;2023-01-01T17:18:51;9.70;99.90
5556;DHT22;2801;50.972;7.856;2023-01-01T17:21:38;9.60;99.90
5556;DHT22;2801;50.972;7.856;2023-01-01T17:24:05;9.50;99.90
5556;DHT22;2801;50.972;7.856;2023-01-01T17:26:33;9.50;99.90
5556;DHT22;2801;50.972;7.856;2023-01-01T17:29:00;9.50;99.90
5556;DHT22;2801;50.972;7.856;2023-01-01T17:31:28;9.50;99.90
5556;DHT22;2801;50.972;7.856;2023-01-01T17:33:55;9.50;99.90
5556;DHT22;2801;50.972;7.856;2023-01-01T17:36:23;9.50;99.90
5556;DHT22;2801;50.972;7.856;2023-01-01T17:38:52;9.50;99.90
5556;DHT22;2801;50.972;7.856;2023-01-01T17:41:19;9.50;99.90
5556;DHT22;2801;50.972;7.856;2023-01-01T17:43:51;9.60;99.90
5556;DHT22;2801;50.972;7.856;2023-01-01T17:46:22;9.50;99.90
5556;DHT22;2801;50.972;7.856;2023-01-01T17:49:00;9.50;99.90
5556;DHT22;2801;50.972;7.856;2023-01-01T17:51:28;9.50;99.90
5556;DHT22;2801;50.972;7.856;2023-01-01T17:53:56;9.50;99.90
5556;DHT22;2801;50.972;7.856;2023-01-01T17:56:23;9.50;99.90
5556;DHT22;2801;50.972;7.856;2023-01-01T17:58:52;9.50;99.90
5556;DHT22;2801;50.972;7.856;2023-01-01T18:03:53;9.40;99.90
5556;DHT22;2801;50.972;7.856;2023-01-01T18:06:23;9.40;99.90
5556;DHT22;2801;50.972;7.856;2023-01-01T18:08:58;9.40;99.90
5556;DHT22;2801;50.972;7.856;2023-01-01T18:11:28;9.40;99.90
5556;DHT22;2801;50.972;7.856;2023-01-01T18:13:58;9.40;99.90
5556;DHT22;2801;50.972;7.856;2023-01-01T18:16:27;9.30;99.90
5556;DHT22;2801;50.972;7.856;2023-01-01T18:18:55;9.30;99.90
5556;DHT22;2801;50.972;7.856;2023-01-01T18:21:26;9.40;99.90
5556;DHT22;2801;50.972;7.856;2023-01-01T18:23:55;9.40;99.90
5556;DHT22;2801;50.972;7.856;2023-01-01T18:26:25;9.40;99.90
5556;DHT22;2801;50.972;7.856;2023-01-01T18:28:59;9.40;99.90
5556;DHT22;2801;50.972;7.856;2023-01-01T18:31:29;9.50;99.90
5556;DHT22;2801;50.972;7.856;2023-01-01T18:33:58;9.40;99.90
5556;DHT22;2801;50.972;7.856;2023-01-01T18:36:30;9.50;99.90
5556;DHT22;2801;50.972;7.856;2023-01-01T18:39:19;9.50;99.90
5556;DHT22;2801;50.972;7.856;2023-01-01T18:44:39;9.50;99.90
5556;DHT22;2801;50.972;7.856;2023-01-01T18:47:17;9.50;99.90
5556;DHT22;2801;50.972;7.856;2023-01-01T18:49:51;9.40;99.90
5556;DHT22;2801;50.972;7.856;2023-01-01T18:52:26;9.40;99.90
5556;DHT22;2801;50.972;7.856;2023-01-01T18:57:36;9.40;99.90
5556;DHT22;2801;50.972;7.856;2023-01-01T19:00:20;9.40;99.90
5556;DHT22;2801;50.972;7.856;2023-01-01T19:02:56;9.40;99.90
5556;DHT22;2801;50.972;7.856;2023-01-01T19:05:32;9.50;99.90
5556;DHT22;2801;50.972;7.856;2023-01-01T19:13:28;9.40;99.90
5556;DHT22;2801;50.972;7.856;2023-01-01T19:15:59;9.40;99.90